Login to view Products
 
Friday, March 22, 2019 (10:05 UTC)
Dubai International Airport
Last Updated: 22-Mar-2019 (10:04Z)
Wind Dir/Speed: NNE at 11 kt
Temperature: 28.8°C
Rel. Humidity: 38 %
Pressure: 1014.0 hPa
Visibility: 10000 m
  • METAR OMDB 221000Z 02010KT 360V070 CAVOK 29/14 Q1014 NOSIG
  • TAF OMDB 220454Z 2206/2312 07010KT 8000 NSC BECMG 2206/2208 19008KT PROB30 TEMPO 2206/2214 VRB15G25KT 4000 SHRA FEW040TCU BECMG 2208/2210 36014KT BECMG 2214/2216 07008KT PROB30 TEMPO 2220/2310 VRB18G30KT 4000 TSRA FEW040CB BECMG 2309/2311 36014KT=
D:\Input Parser\Destinations\Final\04\OMDBL06120454855691674.txt
1